Time;durP1;ratioP1;P1;durP2;ratioP2;P2;SDS_P1;SDS_P2;PMS_P1;PMS_P2;Temp;Humidity;BMP_temperature;BMP_pressure;BME280_temperature;BME280_humidity;BME280_pressure;Samples;Min_cycle;Max_cycle;Signal;HPM_P1;HPM_P2
2021/07/20 00:06:44;;;;;;;6.45;3.95;;;21.60;57.80;;;;;;20997817;28;20119;-20
2021/07/20 00:16:45;;;;;;;5.00;3.72;;;21.60;57.80;;;;;;20998049;28;20114;-19
2021/07/20 00:26:47;;;;;;;6.30;4.68;;;21.60;57.80;;;;;;20996432;28;20394;-19
2021/07/20 00:36:47;;;;;;;7.82;4.57;;;21.60;57.80;;;;;;20949126;28;20032;-19
2021/07/20 00:46:48;;;;;;;7.55;3.65;;;21.60;58.00;;;;;;20958660;28;20167;-19
2021/07/20 00:56:50;;;;;;;4.82;3.00;;;21.60;58.00;;;;;;20967184;28;20112;-19
2021/07/20 01:06:51;;;;;;;6.80;4.05;;;21.50;57.90;;;;;;20938214;28;20033;-19
2021/07/20 01:16:53;;;;;;;5.63;3.75;;;21.50;57.80;;;;;;20942761;28;20036;-19
2021/07/20 01:26:54;;;;;;;6.60;3.78;;;21.50;57.90;;;;;;20945259;28;20111;-20
2021/07/20 01:36:56;;;;;;;6.50;4.13;;;21.50;58.00;;;;;;20959749;28;20039;-20
2021/07/20 01:46:57;;;;;;;6.65;4.07;;;21.50;58.10;;;;;;20957244;28;20085;-19
2021/07/20 01:56:57;;;;;;;7.20;4.35;;;21.50;58.10;;;;;;20953287;28;20064;-20
2021/07/20 02:17:19;;;;;;;5.43;4.53;;;21.50;58.30;;;;;;20943024;28;20036;-19
2021/07/20 02:27:22;;;;;;;7.00;3.88;;;21.50;58.20;;;;;;20930450;28;20031;-19
2021/07/20 02:37:25;;;;;;;6.40;4.22;;;21.50;58.40;;;;;;20927510;28;20403;-19
2021/07/20 02:47:27;;;;;;;4.22;3.28;;;21.40;58.30;;;;;;20962595;28;20017;-19
2021/07/20 02:57:29;;;;;;;5.20;3.63;;;21.50;58.20;;;;;;20981428;28;20629;-19
2021/07/20 03:07:30;;;;;;;6.05;4.05;;;21.40;58.30;;;;;;20970623;28;20027;-19
2021/07/20 03:17:31;;;;;;;4.68;3.75;;;21.40;58.30;;;;;;20985018;28;20036;-19
2021/07/20 03:27:34;;;;;;;5.13;3.47;;;21.40;58.30;;;;;;20972931;28;20066;-19
2021/07/20 03:37:35;;;;;;;4.25;3.08;;;21.40;58.20;;;;;;21001368;28;20040;-19
2021/07/20 03:47:37;;;;;;;9.43;3.80;;;21.40;58.40;;;;;;20987080;28;20032;-19
2021/07/20 03:57:39;;;;;;;5.20;3.47;;;21.40;58.40;;;;;;21000024;28;20108;-19
2021/07/20 04:07:40;;;;;;;4.63;3.25;;;21.40;58.20;;;;;;20981378;28;20024;-19
2021/07/20 04:17:43;;;;;;;11.02;3.83;;;21.40;58.40;;;;;;20999173;28;20394;-19
2021/07/20 04:27:44;;;;;;;7.38;3.50;;;21.40;58.30;;;;;;21011703;28;20105;-19
2021/07/20 04:37:45;;;;;;;6.50;3.33;;;21.30;58.30;;;;;;20942100;23;20048;-20
2021/07/20 04:47:46;;;;;;;6.70;3.75;;;21.40;58.20;;;;;;20912421;28;20025;-20
2021/07/20 04:57:46;;;;;;;6.05;3.40;;;21.30;58.00;;;;;;20896218;28;20036;-20
2021/07/20 05:07:47;;;;;;;5.53;3.78;;;21.30;58.00;;;;;;20911361;28;20040;-20
2021/07/20 05:17:48;;;;;;;6.45;3.78;;;21.30;58.00;;;;;;20913966;28;20095;-20
2021/07/20 05:27:54;;;;;;;8.32;4.00;;;21.30;58.00;;;;;;20909957;28;20033;-20
2021/07/20 05:37:54;;;;;;;7.03;3.60;;;21.30;58.10;;;;;;20908285;28;20063;-20
2021/07/20 05:47:56;;;;;;;5.80;3.33;;;21.30;58.10;;;;;;20906598;28;20029;-21
2021/07/20 05:57:58;;;;;;;15.00;3.45;;;21.30;58.20;;;;;;20892952;28;20039;-19
2021/07/20 06:07:59;;;;;;;15.70;6.63;;;21.40;58.80;;;;;;20871137;28;20033;-19
2021/07/20 06:17:59;;;;;;;9.40;4.88;;;21.50;58.60;;;;;;20862497;28;20029;-20
2021/07/20 06:28:04;;;;;;;23.33;6.70;;;21.40;58.70;;;;;;20909074;28;20035;-20
2021/07/20 06:38:05;;;;;;;22.60;5.57;;;21.40;58.50;;;;;;20915454;28;20126;-20
2021/07/20 06:48:07;;;;;;;11.73;5.43;;;21.30;58.30;;;;;;20888508;28;20068;-21
2021/07/20 06:58:09;;;;;;;15.80;7.43;;;21.30;58.20;;;;;;20901406;28;21065;-20
2021/07/20 07:08:11;;;;;;;12.13;6.00;;;21.40;58.30;;;;;;20914684;28;20033;-19
2021/07/20 07:18:12;;;;;;;9.68;4.70;;;21.40;58.30;;;;;;20891076;28;20038;-21
2021/07/20 07:28:13;;;;;;;9.95;5.25;;;21.40;58.40;;;;;;20874274;28;20419;-22
2021/07/20 07:38:19;;;;;;;10.15;4.22;;;21.50;58.50;;;;;;20874212;28;20033;-20
2021/07/20 07:48:21;;;;;;;8.73;3.88;;;21.50;58.40;;;;;;20889966;28;20021;-21
2021/07/20 07:58:28;;;;;;;6.63;3.75;;;21.50;57.70;;;;;;20904940;28;20033;-19
2021/07/20 08:08:31;;;;;;;8.35;3.67;;;21.60;57.90;;;;;;20848184;28;20022;-20
2021/07/20 08:18:32;;;;;;;13.40;4.10;;;21.50;57.80;;;;;;20827939;28;20032;-21
2021/07/20 08:28:49;;;;;;;28.52;4.90;;;21.60;57.20;;;;;;20856141;28;20495;-20
2021/07/20 08:38:53;;;;;;;15.77;4.20;;;21.60;57.20;;;;;;20884152;28;20025;-20
2021/07/20 08:49:17;;;;;;;13.98;3.33;;;21.60;56.90;;;;;;20914891;28;20542;-20
2021/07/20 08:59:24;;;;;;;14.80;4.20;;;21.60;56.70;;;;;;20899248;28;20021;-19
2021/07/20 09:09:29;;;;;;;9.93;3.20;;;21.60;56.30;;;;;;20910442;28;20028;-20
2021/07/20 09:19:39;;;;;;;9.25;3.35;;;21.60;56.00;;;;;;20889799;28;20040;-20
2021/07/20 09:29:44;;;;;;;7.43;3.47;;;21.60;55.60;;;;;;20908757;28;20032;-21
2021/07/20 09:39:47;;;;;;;4.93;2.65;;;21.60;55.60;;;;;;20909315;28;20025;-20
2021/07/20 09:50:08;;;;;;;4.20;2.35;;;21.70;54.80;;;;;;20890655;28;20400;-19
2021/07/20 10:00:18;;;;;;;5.38;1.80;;;21.70;54.60;;;;;;20905615;28;20039;-20
2021/07/20 10:10:47;;;;;;;4.38;2.38;;;21.60;54.00;;;;;;20884107;28;20083;-20
2021/07/20 10:20:59;;;;;;;8.35;2.35;;;21.70;54.10;;;;;;20902913;28;20037;-20
2021/07/20 10:31:04;;;;;;;4.55;2.33;;;21.70;53.80;;;;;;20919858;28;20044;-20
2021/07/20 10:41:06;;;;;;;5.10;2.72;;;21.60;53.90;;;;;;20893571;28;20033;-20
2021/07/20 10:51:28;;;;;;;6.07;1.92;;;21.70;54.00;;;;;;20898483;28;20219;-19
2021/07/20 11:01:54;;;;;;;4.32;2.45;;;21.60;53.80;;;;;;20891791;28;20060;-19
2021/07/20 11:11:57;;;;;;;4.78;2.28;;;21.70;53.60;;;;;;20889044;28;20080;-19
2021/07/20 11:21:59;;;;;;;5.43;2.38;;;21.70;53.60;;;;;;20888385;28;20037;-20
2021/07/20 11:32:05;;;;;;;3.28;2.03;;;21.70;53.30;;;;;;20891260;28;20029;-20
2021/07/20 11:42:17;;;;;;;6.82;2.47;;;21.70;53.10;;;;;;20912046;28;20573;-20
2021/07/20 11:52:47;;;;;;;8.13;1.92;;;21.70;52.90;;;;;;20904719;28;20090;-20
2021/07/20 12:03:25;;;;;;;4.10;2.20;;;21.70;52.40;;;;;;20875346;28;20377;-20
2021/07/20 12:13:26;;;;;;;4.53;1.70;;;21.70;52.30;;;;;;20919981;28;20039;-20
2021/07/20 12:23:27;;;;;;;7.20;2.97;;;21.70;53.70;;;;;;20898583;28;20025;-20
2021/07/20 12:33:27;;;;;;;4.68;2.58;;;21.70;54.20;;;;;;20899632;28;20028;-20
2021/07/20 12:43:28;;;;;;;3.08;2.30;;;21.70;54.20;;;;;;20913215;28;20048;-21
2021/07/20 12:53:30;;;;;;;3.30;2.40;;;21.60;53.40;;;;;;20900106;28;20593;-20
2021/07/20 13:03:30;;;;;;;4.72;2.53;;;21.70;53.60;;;;;;20853671;28;20026;-20
2021/07/20 13:13:31;;;;;;;4.23;2.80;;;21.60;53.70;;;;;;20889292;28;20059;-20
2021/07/20 13:23:38;;;;;;;5.22;3.00;;;21.70;54.10;;;;;;20908297;28;20029;-20
2021/07/20 13:33:39;;;;;;;7.85;3.60;;;21.60;54.10;;;;;;20909838;28;20029;-19
2021/07/20 13:43:41;;;;;;;5.82;3.17;;;21.70;54.40;;;;;;20903867;28;20029;-19
2021/07/20 13:53:44;;;;;;;8.00;3.28;;;21.60;54.50;;;;;;20907251;28;20021;-20
2021/07/20 14:03:46;;;;;;;6.30;2.80;;;21.60;54.40;;;;;;20862333;28;20024;-20
2021/07/20 14:13:48;;;;;;;6.28;3.35;;;21.60;54.40;;;;;;20823649;28;20108;-20
2021/07/20 14:24:10;;;;;;;5.00;2.67;;;21.70;54.50;;;;;;20825071;28;20451;-20
2021/07/20 14:34:14;;;;;;;10.63;3.72;;;21.60;54.30;;;;;;20915641;28;20063;-20
2021/07/20 14:44:15;;;;;;;6.82;2.85;;;21.60;55.00;;;;;;20905619;28;20403;-20
2021/07/20 14:54:26;;;;;;;8.70;2.70;;;21.70;55.10;;;;;;20903521;28;20056;-20
2021/07/20 15:04:28;;;;;;;9.18;4.25;;;21.60;54.90;;;;;;20902756;28;20025;-21
2021/07/20 15:14:32;;;;;;;11.93;3.00;;;21.60;54.70;;;;;;20827797;28;20551;-19
2021/07/20 15:24:35;;;;;;;6.25;3.47;;;21.60;54.50;;;;;;20823315;28;20136;-20
2021/07/20 15:34:36;;;;;;;7.38;2.85;;;21.60;54.60;;;;;;20835948;28;20060;-20
2021/07/20 15:44:36;;;;;;;2.88;2.05;;;21.60;54.50;;;;;;20868026;28;20407;-20
2021/07/20 15:54:37;;;;;;;9.52;2.92;;;21.60;54.50;;;;;;20916834;28;20040;-19
2021/07/20 16:04:39;;;;;;;13.45;4.68;;;21.70;54.00;;;;;;20907050;28;20035;-20
2021/07/20 16:14:40;;;;;;;8.45;2.53;;;21.70;54.20;;;;;;20894781;28;20044;-19
2021/07/20 16:24:42;;;;;;;3.53;2.38;;;21.70;53.60;;;;;;20887971;28;20033;-19
2021/07/20 16:34:43;;;;;;;6.70;3.28;;;21.80;53.30;;;;;;20897658;28;20038;-19
2021/07/20 16:44:45;;;;;;;5.38;3.22;;;21.80;53.20;;;;;;20888521;28;20113;-20
2021/07/20 16:54:46;;;;;;;6.85;2.60;;;21.80;53.20;;;;;;20901461;28;20037;-20
2021/07/20 17:04:46;;;;;;;6.23;2.80;;;21.80;53.60;;;;;;20905881;28;20029;-20
2021/07/20 17:14:50;;;;;;;13.00;3.77;;;21.90;53.80;;;;;;20909161;28;20033;-20
2021/07/20 17:24:55;;;;;;;13.10;3.90;;;21.80;54.20;;;;;;20902965;28;20498;-19
2021/07/20 17:34:57;;;;;;;19.33;4.88;;;21.80;55.10;;;;;;20869654;28;20037;-20
2021/07/20 17:45:02;;;;;;;15.57;6.30;;;21.90;55.20;;;;;;20881805;28;20499;-19
2021/07/20 17:55:04;;;;;;;13.60;5.43;;;22.00;55.40;;;;;;20894232;28;20029;-19
2021/07/20 18:05:07;;;;;;;18.17;5.20;;;21.90;55.70;;;;;;20863278;28;20029;-19
2021/07/20 18:15:08;;;;;;;16.02;5.25;;;22.10;55.90;;;;;;20894180;28;20052;-20
2021/07/20 18:25:10;;;;;;;12.98;5.85;;;21.90;56.20;;;;;;20908859;28;20029;-19
2021/07/20 18:35:10;;;;;;;10.85;4.43;;;21.80;56.20;;;;;;20995802;23;20107;-19
2021/07/20 18:45:13;;;;;;;13.35;5.07;;;21.80;56.40;;;;;;20911950;28;20036;-20
2021/07/20 18:55:14;;;;;;;18.42;5.95;;;21.80;56.40;;;;;;20901349;28;20025;-22
2021/07/20 19:05:16;;;;;;;12.95;6.25;;;21.80;57.20;;;;;;20914162;28;20031;-19
2021/07/20 19:15:16;;;;;;;13.80;5.75;;;21.80;56.40;;;;;;20901854;28;20029;-20
2021/07/20 19:25:17;;;;;;;15.35;6.15;;;21.80;56.10;;;;;;20899430;28;20044;-20
2021/07/20 19:35:17;;;;;;;12.48;6.22;;;21.80;56.40;;;;;;20900707;28;20037;-21
2021/07/20 19:45:19;;;;;;;19.07;6.77;;;21.80;56.40;;;;;;20913006;28;20035;-20
2021/07/20 19:55:20;;;;;;;13.20;6.30;;;21.80;56.50;;;;;;20908951;28;20807;-21
2021/07/20 20:05:21;;;;;;;13.32;7.03;;;21.70;56.60;;;;;;20901743;28;20073;-19
2021/07/20 20:15:21;;;;;;;11.50;6.97;;;21.70;57.10;;;;;;20910575;28;20028;-18
2021/07/20 20:25:23;;;;;;;13.60;7.15;;;21.70;57.40;;;;;;20916436;28;20060;-19
2021/07/20 20:35:24;;;;;;;13.85;6.88;;;21.70;57.60;;;;;;20919552;28;20021;-20
2021/07/20 20:45:25;;;;;;;9.13;6.23;;;21.70;57.60;;;;;;20906371;28;20033;-20
2021/07/20 20:55:26;;;;;;;8.10;5.60;;;21.70;57.60;;;;;;20917122;28;20487;-20
2021/07/20 21:05:26;;;;;;;8.50;5.78;;;21.70;57.90;;;;;;20908801;28;20353;-19
2021/07/20 21:15:27;;;;;;;8.60;5.85;;;21.60;58.00;;;;;;20917644;28;20121;-19
2021/07/20 21:25:27;;;;;;;6.90;5.70;;;21.60;58.10;;;;;;20902466;28;20483;-20
2021/07/20 21:35:28;;;;;;;7.60;5.05;;;21.60;58.20;;;;;;20915440;28;20044;-20
2021/07/20 21:45:28;;;;;;;7.90;4.47;;;21.50;58.40;;;;;;20916531;28;20040;-20
2021/07/20 21:55:29;;;;;;;10.80;6.03;;;21.50;58.80;;;;;;20915080;28;20039;-20
2021/07/20 22:05:30;;;;;;;10.05;5.10;;;21.50;58.70;;;;;;20913827;28;20060;-20
2021/07/20 22:15:32;;;;;;;12.65;5.63;;;21.50;58.80;;;;;;20900890;28;20028;-20
2021/07/20 22:25:35;;;;;;;9.50;5.68;;;21.50;59.20;;;;;;20899881;28;20021;-19
2021/07/20 22:35:37;;;;;;;8.05;4.72;;;21.40;59.40;;;;;;20895506;28;20025;-19
2021/07/20 22:45:38;;;;;;;11.38;5.72;;;21.40;59.20;;;;;;20891696;28;20043;-20
2021/07/20 22:55:40;;;;;;;12.40;6.72;;;21.40;59.50;;;;;;20915736;28;20056;-19
2021/07/20 23:05:40;;;;;;;9.82;5.65;;;21.40;59.80;;;;;;20903350;28;20398;-19
2021/07/20 23:15:43;;;;;;;8.65;5.32;;;21.30;60.00;;;;;;20908601;28;20060;-19
2021/07/20 23:25:44;;;;;;;10.98;5.93;;;21.30;60.10;;;;;;20884574;28;20025;-19
2021/07/20 23:35:44;;;;;;;10.95;5.65;;;21.20;60.20;;;;;;20901752;28;20032;-19
2021/07/20 23:45:45;;;;;;;8.63;5.65;;;21.30;60.40;;;;;;20908195;28;20025;-19
2021/07/20 23:55:46;;;;;;;6.90;5.10;;;21.30;60.30;;;;;;20925886;28;20029;-19
